createdAt,value
2022-09-14T00:01:43.175Z,10.85
2022-09-14T00:04:51.933Z,10.02
2022-09-14T00:07:54.336Z,11.50
2022-09-14T00:10:56.392Z,12.75
2022-09-14T00:17:06.708Z,12.18
2022-09-14T00:23:11.327Z,11.57
2022-09-14T00:26:17.220Z,11.18
2022-09-14T00:29:20.275Z,12.25
2022-09-14T00:32:22.060Z,12.00
2022-09-14T00:35:24.750Z,11.55
2022-09-14T00:38:26.632Z,11.77
2022-09-14T00:41:37.989Z,12.40
2022-09-14T00:44:39.770Z,11.90
2022-09-14T00:47:42.325Z,11.45
2022-09-14T00:50:44.772Z,12.70
2022-09-14T00:53:47.573Z,12.70
2022-09-14T00:56:50.237Z,13.35
2022-09-14T00:59:53.723Z,12.32
2022-09-14T01:02:55.810Z,11.95
2022-09-14T01:09:33.447Z,12.02
2022-09-14T01:12:36.642Z,11.68
2022-09-14T01:15:47.455Z,11.95
2022-09-14T01:19:04.976Z,10.80
2022-09-14T01:22:15.794Z,10.73
2022-09-14T01:25:37.582Z,10.77
2022-09-14T01:28:52.044Z,11.13
2022-09-14T01:32:06.076Z,11.40
2022-09-14T01:38:29.219Z,10.88
2022-09-14T01:41:32.354Z,9.85
2022-09-14T01:44:37.360Z,9.55
2022-09-14T01:47:50.091Z,11.20
2022-09-14T01:50:55.904Z,10.55
2022-09-14T01:54:09.494Z,10.00
2022-09-14T01:57:11.291Z,10.02
2022-09-14T02:00:17.560Z,9.63
2022-09-14T02:03:30.490Z,10.05
2022-09-14T02:06:43.386Z,10.27
2022-09-14T02:09:50.755Z,9.98
2022-09-14T02:12:53.790Z,11.10
2022-09-14T02:15:56.187Z,11.70
2022-09-14T02:18:58.227Z,10.75
2022-09-14T02:22:00.371Z,11.82
2022-09-14T02:25:03.754Z,12.18
2022-09-14T02:28:05.753Z,11.88
2022-09-14T02:31:25.795Z,11.00
2022-09-14T02:34:57.651Z,7.68
2022-09-14T02:38:25.784Z,8.02
2022-09-14T02:41:51.327Z,7.80
2022-09-14T02:45:10.991Z,7.70
2022-09-14T02:48:15.588Z,7.70
2022-09-14T02:51:46.310Z,7.13
2022-09-14T02:54:57.880Z,7.53
2022-09-14T02:58:11.505Z,8.50
2022-09-14T03:01:16.523Z,8.25
2022-09-14T03:04:18.491Z,7.82
2022-09-14T03:07:20.723Z,7.40
2022-09-14T03:10:22.550Z,8.07
2022-09-14T03:13:24.487Z,7.93
2022-09-14T03:16:29.136Z,8.35
2022-09-14T03:19:31.068Z,7.90
2022-09-14T03:22:33.388Z,7.80
2022-09-14T03:25:53.291Z,7.75
2022-09-14T03:28:58.012Z,7.90
2022-09-14T03:31:59.936Z,7.70
2022-09-14T03:35:01.954Z,8.00
2022-09-14T03:38:06.411Z,9.30
2022-09-14T03:41:09.727Z,10.02
2022-09-14T03:44:12.510Z,8.82
2022-09-14T03:47:15.051Z,9.80
2022-09-14T03:50:20.246Z,10.07
2022-09-14T03:53:22.239Z,10.48
2022-09-14T03:56:24.148Z,11.40
2022-09-14T03:59:26.010Z,9.88
2022-09-14T04:02:29.356Z,11.15
2022-09-14T04:05:31.269Z,9.88
2022-09-14T04:08:36.789Z,9.85
2022-09-14T04:11:38.622Z,10.68
2022-09-14T04:14:43.694Z,10.88
2022-09-14T04:17:45.748Z,10.63
2022-09-14T04:21:08.039Z,9.80
2022-09-14T04:24:15.648Z,9.68
2022-09-14T04:27:18.357Z,9.32
2022-09-14T04:30:22.075Z,8.00
2022-09-14T04:33:24.277Z,8.73
2022-09-14T04:36:28.745Z,7.88
2022-09-14T04:39:30.818Z,7.25
2022-09-14T04:45:34.628Z,6.93
2022-09-14T04:48:36.954Z,6.35
2022-09-14T04:51:42.898Z,5.63
2022-09-14T04:54:44.859Z,5.38
2022-09-14T05:00:48.613Z,5.50
2022-09-14T05:03:51.528Z,6.32
2022-09-14T05:06:53.608Z,5.35
2022-09-14T05:09:55.504Z,6.43
2022-09-14T05:12:57.490Z,6.53
2022-09-14T05:16:30.249Z,6.90
2022-09-14T05:19:32.173Z,7.28
2022-09-14T05:22:34.064Z,7.63
2022-09-14T05:25:35.907Z,9.32
2022-09-14T05:28:38.282Z,8.63
2022-09-14T05:31:41.408Z,8.35
2022-09-14T05:34:43.333Z,8.52
2022-09-14T05:37:45.573Z,8.20
2022-09-14T05:40:47.698Z,8.25
2022-09-14T05:43:50.041Z,7.95
2022-09-14T05:46:52.219Z,8.77
2022-09-14T05:52:56.233Z,9.43
2022-09-14T05:56:06.322Z,8.63
2022-09-14T05:59:08.181Z,8.23
2022-09-14T06:02:14.408Z,7.68
2022-09-14T06:05:18.851Z,8.45
2022-09-14T06:08:21.301Z,7.93
2022-09-14T06:11:26.314Z,7.20
2022-09-14T06:14:28.558Z,8.43
2022-09-14T06:17:31.952Z,8.02
2022-09-14T06:20:37.099Z,8.25
2022-09-14T06:23:39.020Z,7.32
2022-09-14T06:26:41.394Z,7.22
2022-09-14T06:29:44.821Z,7.85
2022-09-14T06:32:46.881Z,7.55
2022-09-14T06:42:46.448Z,7.45
2022-09-14T06:46:06.468Z,7.78
2022-09-14T06:49:11.965Z,9.05
2022-09-14T06:52:16.643Z,7.65
2022-09-14T06:55:20.178Z,8.27
2022-09-14T06:58:22.026Z,8.18
2022-09-14T07:01:24.240Z,7.90
2022-09-14T07:07:28.596Z,9.07
2022-09-14T07:10:30.483Z,8.15
2022-09-14T07:13:32.578Z,9.30
2022-09-14T07:19:37.457Z,8.70
2022-09-14T07:22:39.432Z,8.40
2022-09-14T07:25:41.660Z,8.60
2022-09-14T07:28:45.536Z,8.15
2022-09-14T07:31:50.206Z,8.55
2022-09-14T07:34:52.244Z,8.07
2022-09-14T07:37:55.007Z,8.68
2022-09-14T07:41:00.735Z,7.85
2022-09-14T07:44:08.365Z,7.20
2022-09-14T07:47:10.743Z,6.85
2022-09-14T07:50:12.970Z,6.90
2022-09-14T07:53:15.306Z,5.97
2022-09-14T07:56:17.450Z,6.20
2022-09-14T07:59:36.927Z,7.28
2022-09-14T08:02:39.490Z,8.20
2022-09-14T08:05:41.462Z,7.38
2022-09-14T08:08:45.460Z,7.72
2022-09-14T08:11:47.685Z,7.47
2022-09-14T08:14:51.535Z,7.57
2022-09-14T08:17:53.581Z,7.38
2022-09-14T08:20:55.713Z,7.05
2022-09-14T08:23:58.807Z,6.93
2022-09-14T08:27:06.819Z,6.32
2022-09-14T08:30:09.223Z,5.70
2022-09-14T08:33:13.225Z,5.45
2022-09-14T08:36:17.798Z,5.25
2022-09-14T08:39:19.709Z,5.10
2022-09-14T08:42:23.025Z,4.25
2022-09-14T08:45:28.347Z,4.43
2022-09-14T08:48:43.631Z,4.15
2022-09-14T08:51:49.786Z,4.57
2022-09-14T08:55:00.112Z,4.07
2022-09-14T08:58:26.788Z,4.55
2022-09-14T09:01:56.947Z,3.38
2022-09-14T09:05:13.596Z,3.45
2022-09-14T09:08:22.837Z,3.15
2022-09-14T09:11:31.777Z,2.97
2022-09-14T09:14:43.623Z,2.85
2022-09-14T09:17:50.182Z,2.85
2022-09-14T09:20:58.626Z,2.90
2022-09-14T09:24:37.552Z,2.33
2022-09-14T09:27:40.109Z,2.97
2022-09-14T09:30:43.445Z,3.17
2022-09-14T09:33:50.010Z,2.85
2022-09-14T09:36:56.954Z,2.75
2022-09-14T09:40:00.666Z,2.67
2022-09-14T09:43:21.178Z,2.40
2022-09-14T09:46:33.533Z,2.67
2022-09-14T09:49:38.638Z,3.33
2022-09-14T09:52:58.005Z,2.40
2022-09-14T09:56:05.580Z,3.00
2022-09-14T09:59:22.744Z,2.83
2022-09-14T10:02:34.527Z,2.25
2022-09-14T10:05:37.217Z,2.67
2022-09-14T10:08:47.251Z,2.50
2022-09-14T10:12:05.999Z,2.65
2022-09-14T10:15:11.752Z,2.17
2022-09-14T10:18:20.710Z,2.58
2022-09-14T10:21:24.650Z,2.70
2022-09-14T10:24:28.560Z,2.40
2022-09-14T10:27:37.592Z,2.25
2022-09-14T10:30:45.930Z,2.17
2022-09-14T10:33:52.091Z,2.53
2022-09-14T10:37:08.198Z,2.47
2022-09-14T10:40:15.962Z,2.45
2022-09-14T10:43:32.354Z,2.13
2022-09-14T10:46:47.426Z,2.20
2022-09-14T10:50:00.528Z,2.20
2022-09-14T11:03:56.900Z,2.30
2022-09-14T11:07:20.179Z,2.15
2022-09-14T11:10:25.028Z,2.53
2022-09-14T11:13:39.457Z,2.22
2022-09-14T11:17:02.079Z,2.20
2022-09-14T11:20:10.165Z,2.67
2022-09-14T11:23:30.916Z,2.60
2022-09-14T11:26:58.449Z,2.72
2022-09-14T11:30:06.021Z,2.78
2022-09-14T11:33:35.841Z,2.50
2022-09-14T11:36:44.114Z,2.60
2022-09-14T11:40:01.172Z,2.88
2022-09-14T11:43:11.589Z,2.50
2022-09-14T11:46:19.203Z,2.75
2022-09-14T11:49:39.748Z,3.55
2022-09-14T11:52:42.942Z,2.55
2022-09-14T11:55:48.579Z,2.90
2022-09-14T11:58:50.862Z,2.50
2022-09-14T12:01:53.101Z,2.53
2022-09-14T12:05:07.129Z,2.67
2022-09-14T12:08:35.858Z,3.08
2022-09-14T12:11:38.422Z,2.80
2022-09-14T12:14:41.097Z,3.60
2022-09-14T12:17:43.324Z,2.70
2022-09-14T12:20:47.966Z,3.00
2022-09-14T12:23:52.099Z,2.60
2022-09-14T12:26:54.648Z,2.67
2022-09-14T12:29:56.464Z,3.03
2022-09-14T12:36:05.383Z,3.15
2022-09-14T12:39:23.598Z,3.38
2022-09-14T12:42:29.340Z,1.08
2022-09-14T12:45:51.202Z,1.30
2022-09-14T12:49:15.121Z,0.95
2022-09-14T12:52:35.580Z,1.20
2022-09-14T12:55:56.844Z,1.45
2022-09-14T12:59:26.228Z,0.90
2022-09-14T13:02:49.475Z,0.77
2022-09-14T13:05:51.676Z,0.65
2022-09-14T13:08:57.891Z,0.75
2022-09-14T13:12:06.123Z,0.80
2022-09-14T13:15:20.841Z,0.93
2022-09-14T13:18:22.915Z,0.93
2022-09-14T13:21:25.142Z,0.93
2022-09-14T13:24:46.091Z,1.10
2022-09-14T13:27:52.543Z,0.80
2022-09-14T13:30:57.355Z,1.00
2022-09-14T13:34:01.775Z,0.80
2022-09-14T13:37:05.267Z,1.08
2022-09-14T13:40:13.615Z,1.27
2022-09-14T13:43:17.683Z,1.00
2022-09-14T13:46:20.774Z,1.23
2022-09-14T13:49:23.196Z,1.52
2022-09-14T13:52:38.557Z,1.35
2022-09-14T13:55:47.562Z,1.25
2022-09-14T13:59:11.022Z,1.27
2022-09-14T14:02:13.960Z,1.70
2022-09-14T14:05:23.895Z,1.52
2022-09-14T14:08:35.924Z,1.35
2022-09-14T14:11:37.746Z,1.65
2022-09-14T14:14:39.708Z,1.25
2022-09-14T14:17:41.849Z,1.38
2022-09-14T14:20:43.785Z,1.60
2022-09-14T14:24:11.679Z,1.60
2022-09-14T14:27:35.581Z,1.65
2022-09-14T14:30:40.522Z,1.63
2022-09-14T14:33:48.330Z,1.55
2022-09-14T14:36:50.620Z,1.63
2022-09-14T14:39:52.524Z,1.58
2022-09-14T14:42:57.352Z,1.48
2022-09-14T14:46:01.232Z,1.60
2022-09-14T14:49:03.230Z,1.35
2022-09-14T14:52:05.052Z,1.50
2022-09-14T14:55:07.388Z,1.35
2022-09-14T14:58:16.346Z,1.33
2022-09-14T15:01:18.219Z,1.23
2022-09-14T15:07:27.383Z,1.13
2022-09-14T15:13:31.646Z,1.65
2022-09-14T15:16:33.517Z,1.40
2022-09-14T15:19:35.641Z,1.40
2022-09-14T15:22:38.028Z,1.40
2022-09-14T15:25:40.118Z,1.40
2022-09-14T15:28:42.237Z,1.45
2022-09-14T15:31:44.597Z,1.15
2022-09-14T15:34:46.737Z,1.10
2022-09-14T15:37:52.037Z,1.40
2022-09-14T15:40:54.072Z,1.20
2022-09-14T15:46:58.156Z,1.10
2022-09-14T15:50:00.291Z,1.00
2022-09-14T15:53:02.905Z,1.35
2022-09-14T15:56:13.256Z,1.15
2022-09-14T15:59:15.294Z,1.25
2022-09-14T16:02:17.448Z,1.20
2022-09-14T16:05:19.790Z,1.10
2022-09-14T16:08:21.771Z,1.10
2022-09-14T16:11:24.395Z,1.17
2022-09-14T16:14:26.263Z,1.10
2022-09-14T16:20:30.124Z,1.00
2022-09-14T16:23:33.685Z,1.30
2022-09-14T16:26:37.127Z,1.10
2022-09-14T16:29:39.405Z,0.93
2022-09-14T16:32:41.354Z,1.00
2022-09-14T16:38:48.172Z,1.10
2022-09-14T16:41:51.034Z,1.20
2022-09-14T16:44:53.043Z,1.00
2022-09-14T16:47:55.113Z,1.13
2022-09-14T16:50:58.466Z,1.08
2022-09-14T16:54:01.279Z,1.00
2022-09-14T16:57:03.567Z,1.40
2022-09-14T17:00:06.249Z,1.27
2022-09-14T17:03:08.233Z,1.10
2022-09-14T17:09:17.608Z,1.15
2022-09-14T17:12:19.782Z,1.17
2022-09-14T17:15:21.909Z,0.95
2022-09-14T17:18:24.121Z,1.05
2022-09-14T17:21:29.606Z,1.02
2022-09-14T17:24:31.897Z,1.20
2022-09-14T17:27:34.680Z,1.25
2022-09-14T17:33:39.009Z,0.95
2022-09-14T17:36:41.225Z,1.00
2022-09-14T17:39:43.379Z,1.20
2022-09-14T17:42:46.869Z,0.88
2022-09-14T17:45:57.046Z,1.10
2022-09-14T17:49:01.311Z,1.20
2022-09-14T17:52:03.487Z,1.25
2022-09-14T17:55:06.784Z,1.35
2022-09-14T17:58:09.998Z,1.50
2022-09-14T18:01:20.935Z,1.00
2022-09-14T18:04:23.019Z,1.30
2022-09-14T18:07:25.049Z,1.17
2022-09-14T18:13:28.841Z,1.20
2022-09-14T18:16:32.218Z,1.30
2022-09-14T18:19:34.152Z,1.23
2022-09-14T18:22:39.200Z,1.30
2022-09-14T18:25:41.482Z,1.15
2022-09-14T18:28:44.305Z,1.40
2022-09-14T18:31:46.617Z,1.30
2022-09-14T18:34:49.172Z,1.27
2022-09-14T18:37:52.015Z,1.30
2022-09-14T18:40:54.181Z,1.30
2022-09-14T18:43:56.264Z,1.60
2022-09-14T18:50:00.240Z,1.45
2022-09-14T18:53:02.174Z,1.33
2022-09-14T18:59:12.570Z,1.10
2022-09-14T19:02:14.542Z,1.30
2022-09-14T19:08:18.643Z,1.25
2022-09-14T19:11:23.466Z,1.13
2022-09-14T19:14:26.728Z,1.23
2022-09-14T19:17:28.810Z,1.13
2022-09-14T19:20:55.087Z,1.30
2022-09-14T19:23:58.325Z,1.65
2022-09-14T19:27:00.583Z,1.70
2022-09-14T19:30:02.654Z,1.52
2022-09-14T19:33:04.785Z,1.70
2022-09-14T19:36:12.516Z,1.63
2022-09-14T19:39:14.993Z,1.77
2022-09-14T19:42:17.279Z,1.67
2022-09-14T19:45:19.659Z,1.50
2022-09-14T19:48:21.691Z,2.00
2022-09-14T19:54:27.582Z,1.73
2022-09-14T19:57:29.753Z,1.63
2022-09-14T20:00:33.515Z,1.88
2022-09-14T20:03:35.913Z,1.63
2022-09-14T20:06:42.322Z,1.52
2022-09-14T20:09:44.496Z,1.65
2022-09-14T20:12:46.394Z,1.67
2022-09-14T20:15:48.293Z,2.00
2022-09-14T20:18:51.741Z,1.80
2022-09-14T20:21:54.102Z,1.40
2022-09-14T20:24:55.946Z,1.50
2022-09-14T20:27:57.976Z,2.10
2022-09-14T20:34:03.979Z,1.80
2022-09-14T20:37:06.481Z,1.88
2022-09-14T20:40:09.530Z,2.05
2022-09-14T20:43:11.584Z,1.90
2022-09-14T20:49:19.821Z,2.03
2022-09-14T20:52:21.795Z,1.90
2022-09-14T20:55:23.693Z,1.95
2022-09-14T21:01:31.813Z,1.83
2022-09-14T21:04:35.289Z,1.75
2022-09-14T21:07:37.294Z,1.98
2022-09-14T21:10:41.261Z,2.10
2022-09-14T21:13:44.310Z,2.00
2022-09-14T21:16:49.256Z,2.53
2022-09-14T21:19:51.180Z,2.22
2022-09-14T21:25:56.544Z,2.10
2022-09-14T21:29:00.485Z,2.40
2022-09-14T21:32:06.841Z,2.33
2022-09-14T21:35:10.799Z,2.40
2022-09-14T21:41:14.497Z,2.78
2022-09-14T21:44:16.511Z,2.90
2022-09-14T21:50:20.647Z,2.65
2022-09-14T21:53:22.623Z,2.85
2022-09-14T21:56:26.342Z,3.30
2022-09-14T21:59:28.181Z,3.10
2022-09-14T22:05:32.117Z,2.63
2022-09-14T22:08:35.328Z,3.28
2022-09-14T22:11:38.187Z,3.22
2022-09-14T22:14:40.800Z,3.50
2022-09-14T22:17:42.671Z,3.67
2022-09-14T22:20:44.819Z,3.28
2022-09-14T22:23:55.132Z,2.95
2022-09-14T22:26:56.978Z,2.50
2022-09-14T22:29:58.795Z,2.55
2022-09-14T22:33:00.677Z,2.83
2022-09-14T22:36:04.091Z,2.00
2022-09-14T22:39:06.671Z,2.60
2022-09-14T22:42:08.914Z,2.03
2022-09-14T22:45:11.279Z,2.25
2022-09-14T22:48:13.150Z,2.08
2022-09-14T22:51:18.385Z,1.90
2022-09-14T22:54:20.233Z,2.30
2022-09-14T22:57:22.232Z,2.13
2022-09-14T23:03:25.855Z,1.65
2022-09-14T23:06:38.783Z,1.77
2022-09-14T23:09:41.279Z,1.70
2022-09-14T23:12:43.127Z,1.73
2022-09-14T23:15:45.215Z,1.98
2022-09-14T23:18:59.635Z,2.03
2022-09-14T23:22:01.601Z,1.73
2022-09-14T23:25:04.608Z,1.92
2022-09-14T23:28:07.673Z,1.83
2022-09-14T23:31:09.754Z,2.40
2022-09-14T23:34:11.845Z,1.90
2022-09-14T23:37:14.351Z,1.90
2022-09-14T23:40:16.382Z,2.47
2022-09-14T23:43:19.511Z,2.30
2022-09-14T23:46:21.917Z,2.30
2022-09-14T23:49:23.836Z,2.20
2022-09-14T23:52:25.715Z,1.92
2022-09-14T23:55:27.840Z,2.10
2022-09-14T23:58:30.026Z,2.08
